sensor_id;sensor_type;location;lat;lon;timestamp;P1;durP1;ratioP1;P2;durP2;ratioP2
68985;SDS011;56035;37.534;-122.308;2023-03-03T00:00:41;4.63;;;0.73;;
68985;SDS011;56035;37.534;-122.308;2023-03-03T00:03:08;5.93;;;0.70;;
68985;SDS011;56035;37.534;-122.308;2023-03-03T00:05:37;3.70;;;1.20;;
68985;SDS011;56035;37.534;-122.308;2023-03-03T00:08:03;3.65;;;1.15;;
68985;SDS011;56035;37.534;-122.308;2023-03-03T00:10:29;4.93;;;0.90;;
68985;SDS011;56035;37.534;-122.308;2023-03-03T00:12:56;4.72;;;1.00;;
68985;SDS011;56035;37.534;-122.308;2023-03-03T00:15:23;2.83;;;0.95;;
68985;SDS011;56035;37.534;-122.308;2023-03-03T00:17:51;3.53;;;1.17;;
68985;SDS011;56035;37.534;-122.308;2023-03-03T00:22:53;3.77;;;1.07;;
68985;SDS011;56035;37.534;-122.308;2023-03-03T00:25:34;5.68;;;1.05;;
68985;SDS011;56035;37.534;-122.308;2023-03-03T00:28:06;4.43;;;1.10;;
68985;SDS011;56035;37.534;-122.308;2023-03-03T00:30:44;5.07;;;1.17;;
68985;SDS011;56035;37.534;-122.308;2023-03-03T00:33:13;6.85;;;1.73;;
68985;SDS011;56035;37.534;-122.308;2023-03-03T00:35:47;4.35;;;1.40;;
68985;SDS011;56035;37.534;-122.308;2023-03-03T00:38:15;5.45;;;1.20;;
68985;SDS011;56035;37.534;-122.308;2023-03-03T00:40:43;10.20;;;1.50;;
68985;SDS011;56035;37.534;-122.308;2023-03-03T00:43:23;10.37;;;1.63;;
68985;SDS011;56035;37.534;-122.308;2023-03-03T00:45:56;11.43;;;2.27;;
68985;SDS011;56035;37.534;-122.308;2023-03-03T00:51:24;14.90;;;2.10;;
68985;SDS011;56035;37.534;-122.308;2023-03-03T00:53:54;13.63;;;2.47;;
68985;SDS011;56035;37.534;-122.308;2023-03-03T00:56:22;9.60;;;2.17;;
68985;SDS011;56035;37.534;-122.308;2023-03-03T00:58:48;15.15;;;2.33;;
68985;SDS011;56035;37.534;-122.308;2023-03-03T01:01:16;12.93;;;3.15;;
68985;SDS011;56035;37.534;-122.308;2023-03-03T01:03:43;8.93;;;2.23;;
68985;SDS011;56035;37.534;-122.308;2023-03-03T01:06:10;12.80;;;2.10;;
68985;SDS011;56035;37.534;-122.308;2023-03-03T01:08:37;12.57;;;2.30;;
68985;SDS011;56035;37.534;-122.308;2023-03-03T01:11:14;14.50;;;2.90;;
68985;SDS011;56035;37.534;-122.308;2023-03-03T01:13:48;10.53;;;1.70;;
68985;SDS011;56035;37.534;-122.308;2023-03-03T01:16:16;10.97;;;2.53;;
68985;SDS011;56035;37.534;-122.308;2023-03-03T01:18:44;9.13;;;2.47;;
68985;SDS011;56035;37.534;-122.308;2023-03-03T01:21:10;12.73;;;2.40;;
68985;SDS011;56035;37.534;-122.308;2023-03-03T01:23:37;13.00;;;2.35;;
68985;SDS011;56035;37.534;-122.308;2023-03-03T01:26:03;10.52;;;2.15;;
68985;SDS011;56035;37.534;-122.308;2023-03-03T01:28:31;13.37;;;2.10;;
68985;SDS011;56035;37.534;-122.308;2023-03-03T01:31:01;12.77;;;2.13;;
68985;SDS011;56035;37.534;-122.308;2023-03-03T01:33:29;11.77;;;2.23;;
68985;SDS011;56035;37.534;-122.308;2023-03-03T01:35:56;11.97;;;2.37;;
68985;SDS011;56035;37.534;-122.308;2023-03-03T01:38:23;13.05;;;3.03;;
68985;SDS011;56035;37.534;-122.308;2023-03-03T01:40:55;11.82;;;1.77;;
68985;SDS011;56035;37.534;-122.308;2023-03-03T01:43:25;13.53;;;2.83;;
68985;SDS011;56035;37.534;-122.308;2023-03-03T01:48:20;10.68;;;2.42;;
68985;SDS011;56035;37.534;-122.308;2023-03-03T01:50:49;15.00;;;3.10;;
68985;SDS011;56035;37.534;-122.308;2023-03-03T01:53:37;12.20;;;2.23;;
68985;SDS011;56035;37.534;-122.308;2023-03-03T01:56:08;14.57;;;2.37;;
68985;SDS011;56035;37.534;-122.308;2023-03-03T01:58:36;9.40;;;2.60;;
68985;SDS011;56035;37.534;-122.308;2023-03-03T02:01:09;11.53;;;1.97;;
68985;SDS011;56035;37.534;-122.308;2023-03-03T02:03:39;11.97;;;2.33;;
68985;SDS011;56035;37.534;-122.308;2023-03-03T02:06:10;10.50;;;2.00;;
68985;SDS011;56035;37.534;-122.308;2023-03-03T02:08:43;12.97;;;2.10;;
68985;SDS011;56035;37.534;-122.308;2023-03-03T02:11:30;14.47;;;2.33;;
68985;SDS011;56035;37.534;-122.308;2023-03-03T02:13:59;12.73;;;2.70;;
68985;SDS011;56035;37.534;-122.308;2023-03-03T02:16:25;11.77;;;3.15;;
68985;SDS011;56035;37.534;-122.308;2023-03-03T02:18:52;8.95;;;2.10;;
68985;SDS011;56035;37.534;-122.308;2023-03-03T02:21:19;10.48;;;2.55;;
68985;SDS011;56035;37.534;-122.308;2023-03-03T02:23:49;14.17;;;2.53;;
68985;SDS011;56035;37.534;-122.308;2023-03-03T02:26:28;11.87;;;2.00;;
68985;SDS011;56035;37.534;-122.308;2023-03-03T02:28:57;11.73;;;2.37;;
68985;SDS011;56035;37.534;-122.308;2023-03-03T02:31:25;11.93;;;2.22;;
68985;SDS011;56035;37.534;-122.308;2023-03-03T02:33:54;14.10;;;2.80;;
68985;SDS011;56035;37.534;-122.308;2023-03-03T02:36:21;14.63;;;2.58;;
68985;SDS011;56035;37.534;-122.308;2023-03-03T02:39:04;16.33;;;3.20;;
68985;SDS011;56035;37.534;-122.308;2023-03-03T02:44:34;11.57;;;2.70;;
68985;SDS011;56035;37.534;-122.308;2023-03-03T02:47:00;15.32;;;2.80;;
68985;SDS011;56035;37.534;-122.308;2023-03-03T02:49:28;17.70;;;2.50;;
68985;SDS011;56035;37.534;-122.308;2023-03-03T02:51:56;9.53;;;1.87;;
68985;SDS011;56035;37.534;-122.308;2023-03-03T02:54:25;13.83;;;2.63;;
68985;SDS011;56035;37.534;-122.308;2023-03-03T02:56:54;11.70;;;2.07;;
68985;SDS011;56035;37.534;-122.308;2023-03-03T02:59:21;11.70;;;1.77;;
68985;SDS011;56035;37.534;-122.308;2023-03-03T03:01:47;10.05;;;1.50;;
68985;SDS011;56035;37.534;-122.308;2023-03-03T03:04:15;12.75;;;2.38;;
68985;SDS011;56035;37.534;-122.308;2023-03-03T03:06:46;12.20;;;2.27;;
68985;SDS011;56035;37.534;-122.308;2023-03-03T03:09:13;8.38;;;2.60;;
68985;SDS011;56035;37.534;-122.308;2023-03-03T03:11:41;11.27;;;2.37;;
68985;SDS011;56035;37.534;-122.308;2023-03-03T03:14:08;12.93;;;2.10;;
68985;SDS011;56035;37.534;-122.308;2023-03-03T03:16:36;10.90;;;2.20;;
68985;SDS011;56035;37.534;-122.308;2023-03-03T03:19:03;10.40;;;1.90;;
68985;SDS011;56035;37.534;-122.308;2023-03-03T03:21:48;11.00;;;1.87;;
68985;SDS011;56035;37.534;-122.308;2023-03-03T03:24:14;9.55;;;1.75;;
68985;SDS011;56035;37.534;-122.308;2023-03-03T03:26:40;10.48;;;2.33;;
68985;SDS011;56035;37.534;-122.308;2023-03-03T03:29:06;10.80;;;1.75;;
68985;SDS011;56035;37.534;-122.308;2023-03-03T03:31:33;13.05;;;2.17;;
68985;SDS011;56035;37.534;-122.308;2023-03-03T03:33:59;13.07;;;1.95;;
68985;SDS011;56035;37.534;-122.308;2023-03-03T03:36:26;8.30;;;2.53;;
68985;SDS011;56035;37.534;-122.308;2023-03-03T03:38:52;17.83;;;2.65;;
68985;SDS011;56035;37.534;-122.308;2023-03-03T03:41:18;12.20;;;1.92;;
68985;SDS011;56035;37.534;-122.308;2023-03-03T03:43:45;10.88;;;2.47;;
68985;SDS011;56035;37.534;-122.308;2023-03-03T03:46:11;10.68;;;1.92;;
68985;SDS011;56035;37.534;-122.308;2023-03-03T03:48:37;15.90;;;2.78;;
68985;SDS011;56035;37.534;-122.308;2023-03-03T03:51:03;14.02;;;2.08;;
68985;SDS011;56035;37.534;-122.308;2023-03-03T03:53:30;6.75;;;2.03;;
68985;SDS011;56035;37.534;-122.308;2023-03-03T03:55:56;15.43;;;2.20;;
68985;SDS011;56035;37.534;-122.308;2023-03-03T03:58:22;17.35;;;2.90;;
68985;SDS011;56035;37.534;-122.308;2023-03-03T04:00:48;13.90;;;2.60;;
68985;SDS011;56035;37.534;-122.308;2023-03-03T04:03:15;13.98;;;2.03;;
68985;SDS011;56035;37.534;-122.308;2023-03-03T04:05:41;13.38;;;2.40;;
68985;SDS011;56035;37.534;-122.308;2023-03-03T04:08:08;15.63;;;3.00;;
68985;SDS011;56035;37.534;-122.308;2023-03-03T04:10:34;12.48;;;2.38;;
68985;SDS011;56035;37.534;-122.308;2023-03-03T04:13:01;9.27;;;2.38;;
68985;SDS011;56035;37.534;-122.308;2023-03-03T04:15:27;9.73;;;1.92;;
68985;SDS011;56035;37.534;-122.308;2023-03-03T04:17:53;15.43;;;2.55;;
68985;SDS011;56035;37.534;-122.308;2023-03-03T04:20:19;13.40;;;1.98;;
68985;SDS011;56035;37.534;-122.308;2023-03-03T04:22:46;16.83;;;2.30;;
68985;SDS011;56035;37.534;-122.308;2023-03-03T04:25:13;12.35;;;2.47;;
68985;SDS011;56035;37.534;-122.308;2023-03-03T04:27:41;19.97;;;3.77;;
68985;SDS011;56035;37.534;-122.308;2023-03-03T04:30:08;16.33;;;3.10;;
68985;SDS011;56035;37.534;-122.308;2023-03-03T04:32:35;12.82;;;2.20;;
68985;SDS011;56035;37.534;-122.308;2023-03-03T04:35:01;14.90;;;3.05;;
68985;SDS011;56035;37.534;-122.308;2023-03-03T04:37:27;13.90;;;2.25;;
68985;SDS011;56035;37.534;-122.308;2023-03-03T04:39:54;13.02;;;2.75;;
68985;SDS011;56035;37.534;-122.308;2023-03-03T04:42:20;11.90;;;2.38;;
68985;SDS011;56035;37.534;-122.308;2023-03-03T04:44:46;12.38;;;2.17;;
68985;SDS011;56035;37.534;-122.308;2023-03-03T04:47:12;13.15;;;2.67;;
68985;SDS011;56035;37.534;-122.308;2023-03-03T04:49:38;13.45;;;2.40;;
68985;SDS011;56035;37.534;-122.308;2023-03-03T04:52:04;14.25;;;2.20;;
68985;SDS011;56035;37.534;-122.308;2023-03-03T04:54:31;16.83;;;3.20;;
68985;SDS011;56035;37.534;-122.308;2023-03-03T04:56:57;16.25;;;2.70;;
68985;SDS011;56035;37.534;-122.308;2023-03-03T04:59:23;13.80;;;2.80;;
68985;SDS011;56035;37.534;-122.308;2023-03-03T05:01:50;16.63;;;2.75;;
68985;SDS011;56035;37.534;-122.308;2023-03-03T05:04:16;14.23;;;2.80;;
68985;SDS011;56035;37.534;-122.308;2023-03-03T05:06:42;17.98;;;3.58;;
68985;SDS011;56035;37.534;-122.308;2023-03-03T05:09:08;16.92;;;3.35;;
68985;SDS011;56035;37.534;-122.308;2023-03-03T05:11:35;12.48;;;2.30;;
68985;SDS011;56035;37.534;-122.308;2023-03-03T05:14:01;17.45;;;2.50;;
68985;SDS011;56035;37.534;-122.308;2023-03-03T05:16:28;17.90;;;3.20;;
68985;SDS011;56035;37.534;-122.308;2023-03-03T05:18:54;16.70;;;2.83;;
68985;SDS011;56035;37.534;-122.308;2023-03-03T05:21:20;12.60;;;2.28;;
68985;SDS011;56035;37.534;-122.308;2023-03-03T05:23:47;19.23;;;4.45;;
68985;SDS011;56035;37.534;-122.308;2023-03-03T05:26:13;17.70;;;2.47;;
68985;SDS011;56035;37.534;-122.308;2023-03-03T05:28:39;17.48;;;2.90;;
68985;SDS011;56035;37.534;-122.308;2023-03-03T05:31:05;16.98;;;3.08;;
68985;SDS011;56035;37.534;-122.308;2023-03-03T05:33:32;15.73;;;2.78;;
68985;SDS011;56035;37.534;-122.308;2023-03-03T05:35:58;8.05;;;2.15;;
68985;SDS011;56035;37.534;-122.308;2023-03-03T05:38:24;13.55;;;2.60;;
68985;SDS011;56035;37.534;-122.308;2023-03-03T05:40:50;17.30;;;3.00;;
68985;SDS011;56035;37.534;-122.308;2023-03-03T05:43:17;12.48;;;2.63;;
68985;SDS011;56035;37.534;-122.308;2023-03-03T05:48:09;15.40;;;2.70;;
68985;SDS011;56035;37.534;-122.308;2023-03-03T05:50:36;12.88;;;2.17;;
68985;SDS011;56035;37.534;-122.308;2023-03-03T05:53:03;13.80;;;2.22;;
68985;SDS011;56035;37.534;-122.308;2023-03-03T05:55:29;13.23;;;2.20;;
68985;SDS011;56035;37.534;-122.308;2023-03-03T05:57:55;11.88;;;2.00;;
68985;SDS011;56035;37.534;-122.308;2023-03-03T06:00:22;12.25;;;2.08;;
68985;SDS011;56035;37.534;-122.308;2023-03-03T06:02:48;15.05;;;2.88;;
68985;SDS011;56035;37.534;-122.308;2023-03-03T06:05:14;13.90;;;2.42;;
68985;SDS011;56035;37.534;-122.308;2023-03-03T06:07:40;13.50;;;2.40;;
68985;SDS011;56035;37.534;-122.308;2023-03-03T06:10:07;11.30;;;1.95;;
68985;SDS011;56035;37.534;-122.308;2023-03-03T06:12:34;16.08;;;2.33;;
68985;SDS011;56035;37.534;-122.308;2023-03-03T06:15:01;18.50;;;2.95;;
68985;SDS011;56035;37.534;-122.308;2023-03-03T06:17:27;11.70;;;2.08;;
68985;SDS011;56035;37.534;-122.308;2023-03-03T06:19:53;15.20;;;2.38;;
68985;SDS011;56035;37.534;-122.308;2023-03-03T06:22:19;21.92;;;2.88;;
68985;SDS011;56035;37.534;-122.308;2023-03-03T06:24:46;15.65;;;2.63;;
68985;SDS011;56035;37.534;-122.308;2023-03-03T06:27:12;11.20;;;1.83;;
68985;SDS011;56035;37.534;-122.308;2023-03-03T06:29:38;13.00;;;2.40;;
68985;SDS011;56035;37.534;-122.308;2023-03-03T06:32:04;14.75;;;2.65;;
68985;SDS011;56035;37.534;-122.308;2023-03-03T06:34:30;19.88;;;2.63;;
68985;SDS011;56035;37.534;-122.308;2023-03-03T06:36:57;10.25;;;2.03;;
68985;SDS011;56035;37.534;-122.308;2023-03-03T06:39:23;17.30;;;3.22;;
68985;SDS011;56035;37.534;-122.308;2023-03-03T06:41:49;13.82;;;2.50;;
68985;SDS011;56035;37.534;-122.308;2023-03-03T06:44:16;16.08;;;2.22;;
68985;SDS011;56035;37.534;-122.308;2023-03-03T06:46:42;13.10;;;2.55;;
68985;SDS011;56035;37.534;-122.308;2023-03-03T06:49:08;9.98;;;2.60;;
68985;SDS011;56035;37.534;-122.308;2023-03-03T06:51:35;14.38;;;2.38;;
68985;SDS011;56035;37.534;-122.308;2023-03-03T06:56:44;16.27;;;2.70;;
68985;SDS011;56035;37.534;-122.308;2023-03-03T06:59:15;15.27;;;2.67;;
68985;SDS011;56035;37.534;-122.308;2023-03-03T07:01:43;10.23;;;1.77;;
68985;SDS011;56035;37.534;-122.308;2023-03-03T07:06:53;10.50;;;2.10;;
68985;SDS011;56035;37.534;-122.308;2023-03-03T07:09:21;11.63;;;2.70;;
68985;SDS011;56035;37.534;-122.308;2023-03-03T07:11:53;11.37;;;2.60;;
68985;SDS011;56035;37.534;-122.308;2023-03-03T07:14:31;20.50;;;2.97;;
68985;SDS011;56035;37.534;-122.308;2023-03-03T07:17:00;13.70;;;2.67;;
68985;SDS011;56035;37.534;-122.308;2023-03-03T07:21:55;15.68;;;2.83;;
68985;SDS011;56035;37.534;-122.308;2023-03-03T07:24:29;15.20;;;2.28;;
68985;SDS011;56035;37.534;-122.308;2023-03-03T07:29:35;20.20;;;2.50;;
68985;SDS011;56035;37.534;-122.308;2023-03-03T07:32:11;12.70;;;2.27;;
68985;SDS011;56035;37.534;-122.308;2023-03-03T07:34:53;12.93;;;2.17;;
68985;SDS011;56035;37.534;-122.308;2023-03-03T07:39:56;12.53;;;2.10;;
68985;SDS011;56035;37.534;-122.308;2023-03-03T07:42:29;20.90;;;2.77;;
68985;SDS011;56035;37.534;-122.308;2023-03-03T07:56:57;12.10;;;2.30;;
68985;SDS011;56035;37.534;-122.308;2023-03-03T07:59:35;18.63;;;2.50;;
68985;SDS011;56035;37.534;-122.308;2023-03-03T08:02:03;16.03;;;2.60;;
68985;SDS011;56035;37.534;-122.308;2023-03-03T08:04:48;17.30;;;2.50;;
68985;SDS011;56035;37.534;-122.308;2023-03-03T08:07:17;17.50;;;2.10;;
68985;SDS011;56035;37.534;-122.308;2023-03-03T08:09:47;18.67;;;2.80;;
68985;SDS011;56035;37.534;-122.308;2023-03-03T08:14:57;13.43;;;2.37;;
68985;SDS011;56035;37.534;-122.308;2023-03-03T08:17:44;17.30;;;2.80;;
68985;SDS011;56035;37.534;-122.308;2023-03-03T08:22:56;13.07;;;2.07;;
68985;SDS011;56035;37.534;-122.308;2023-03-03T08:25:22;18.77;;;3.33;;
68985;SDS011;56035;37.534;-122.308;2023-03-03T08:27:48;17.90;;;2.60;;
68985;SDS011;56035;37.534;-122.308;2023-03-03T08:30:14;14.50;;;2.75;;
68985;SDS011;56035;37.534;-122.308;2023-03-03T08:32:41;11.27;;;2.25;;
68985;SDS011;56035;37.534;-122.308;2023-03-03T08:35:07;14.15;;;2.55;;
68985;SDS011;56035;37.534;-122.308;2023-03-03T08:37:34;19.38;;;2.45;;
68985;SDS011;56035;37.534;-122.308;2023-03-03T08:40:00;20.88;;;2.75;;
68985;SDS011;56035;37.534;-122.308;2023-03-03T08:42:26;18.00;;;2.17;;
68985;SDS011;56035;37.534;-122.308;2023-03-03T08:44:54;13.17;;;2.30;;
68985;SDS011;56035;37.534;-122.308;2023-03-03T08:47:20;11.25;;;2.33;;
68985;SDS011;56035;37.534;-122.308;2023-03-03T08:49:46;18.25;;;2.60;;
68985;SDS011;56035;37.534;-122.308;2023-03-03T08:52:13;20.70;;;3.28;;
68985;SDS011;56035;37.534;-122.308;2023-03-03T08:54:39;16.55;;;2.95;;
68985;SDS011;56035;37.534;-122.308;2023-03-03T08:57:05;13.40;;;2.20;;
68985;SDS011;56035;37.534;-122.308;2023-03-03T08:59:32;17.33;;;2.55;;
68985;SDS011;56035;37.534;-122.308;2023-03-03T09:02:03;14.90;;;2.43;;
68985;SDS011;56035;37.534;-122.308;2023-03-03T09:04:30;10.23;;;1.90;;
68985;SDS011;56035;37.534;-122.308;2023-03-03T09:06:57;12.13;;;2.85;;
68985;SDS011;56035;37.534;-122.308;2023-03-03T09:09:24;11.93;;;1.90;;
68985;SDS011;56035;37.534;-122.308;2023-03-03T09:11:52;11.88;;;2.33;;
68985;SDS011;56035;37.534;-122.308;2023-03-03T09:14:22;17.13;;;2.87;;
68985;SDS011;56035;37.534;-122.308;2023-03-03T09:16:54;12.40;;;2.13;;
68985;SDS011;56035;37.534;-122.308;2023-03-03T09:19:31;17.33;;;2.33;;
68985;SDS011;56035;37.534;-122.308;2023-03-03T09:22:08;15.37;;;2.17;;
68985;SDS011;56035;37.534;-122.308;2023-03-03T09:24:47;12.23;;;2.47;;
68985;SDS011;56035;37.534;-122.308;2023-03-03T09:27:33;15.30;;;2.67;;
68985;SDS011;56035;37.534;-122.308;2023-03-03T09:30:08;12.27;;;1.70;;
68985;SDS011;56035;37.534;-122.308;2023-03-03T09:32:48;9.97;;;2.07;;
68985;SDS011;56035;37.534;-122.308;2023-03-03T09:37:52;7.83;;;1.60;;
68985;SDS011;56035;37.534;-122.308;2023-03-03T09:43:14;8.80;;;1.83;;
68985;SDS011;56035;37.534;-122.308;2023-03-03T09:46:23;12.60;;;2.53;;
68985;SDS011;56035;37.534;-122.308;2023-03-03T09:54:31;16.87;;;2.87;;
68985;SDS011;56035;37.534;-122.308;2023-03-03T09:57:15;10.77;;;1.77;;
68985;SDS011;56035;37.534;-122.308;2023-03-03T09:59:58;13.50;;;1.90;;
68985;SDS011;56035;37.534;-122.308;2023-03-03T10:16:15;14.87;;;1.90;;
68985;SDS011;56035;37.534;-122.308;2023-03-03T10:19:00;11.20;;;1.43;;
68985;SDS011;56035;37.534;-122.308;2023-03-03T10:21:49;6.70;;;1.47;;
68985;SDS011;56035;37.534;-122.308;2023-03-03T10:24:39;7.53;;;1.37;;
68985;SDS011;56035;37.534;-122.308;2023-03-03T10:44:35;6.70;;;1.27;;
68985;SDS011;56035;37.534;-122.308;2023-03-03T10:52:19;8.63;;;1.23;;
68985;SDS011;56035;37.534;-122.308;2023-03-03T11:00:28;9.23;;;1.20;;
68985;SDS011;56035;37.534;-122.308;2023-03-03T11:06:24;6.40;;;1.00;;
68985;SDS011;56035;37.534;-122.308;2023-03-03T11:12:22;5.63;;;1.20;;
68985;SDS011;56035;37.534;-122.308;2023-03-03T11:14:44;7.73;;;1.50;;
68985;SDS011;56035;37.534;-122.308;2023-03-03T11:27:52;6.57;;;1.30;;
68985;SDS011;56035;37.534;-122.308;2023-03-03T11:36:14;7.13;;;1.30;;
68985;SDS011;56035;37.534;-122.308;2023-03-03T11:38:50;9.75;;;1.90;;
68985;SDS011;56035;37.534;-122.308;2023-03-03T11:44:16;7.07;;;1.30;;
68985;SDS011;56035;37.534;-122.308;2023-03-03T11:49:46;4.10;;;1.10;;
68985;SDS011;56035;37.534;-122.308;2023-03-03T12:00:53;3.60;;;0.70;;
68985;SDS011;56035;37.534;-122.308;2023-03-03T12:12:23;5.17;;;0.87;;
68985;SDS011;56035;37.534;-122.308;2023-03-03T12:15:02;3.97;;;1.23;;
68985;SDS011;56035;37.534;-122.308;2023-03-03T12:25:57;4.20;;;1.00;;
68985;SDS011;56035;37.534;-122.308;2023-03-03T12:28:29;5.00;;;0.70;;
68985;SDS011;56035;37.534;-122.308;2023-03-03T12:37:03;5.53;;;1.07;;
68985;SDS011;56035;37.534;-122.308;2023-03-03T12:48:05;6.67;;;1.10;;
68985;SDS011;56035;37.534;-122.308;2023-03-03T12:56:37;7.13;;;1.10;;
68985;SDS011;56035;37.534;-122.308;2023-03-03T13:02:29;4.70;;;1.10;;
68985;SDS011;56035;37.534;-122.308;2023-03-03T13:15:36;11.53;;;1.43;;
68985;SDS011;56035;37.534;-122.308;2023-03-03T13:24:02;12.77;;;2.20;;
68985;SDS011;56035;37.534;-122.308;2023-03-03T13:26:43;12.47;;;2.00;;
68985;SDS011;56035;37.534;-122.308;2023-03-03T13:29:39;16.57;;;2.80;;
68985;SDS011;56035;37.534;-122.308;2023-03-03T13:32:11;18.80;;;2.50;;
68985;SDS011;56035;37.534;-122.308;2023-03-03T13:37:28;14.43;;;1.87;;
68985;SDS011;56035;37.534;-122.308;2023-03-03T13:42:45;20.67;;;2.90;;
68985;SDS011;56035;37.534;-122.308;2023-03-03T13:51:21;21.17;;;3.53;;
68985;SDS011;56035;37.534;-122.308;2023-03-03T14:06:06;15.87;;;2.63;;
68985;SDS011;56035;37.534;-122.308;2023-03-03T14:08:59;16.70;;;3.13;;
68985;SDS011;56035;37.534;-122.308;2023-03-03T14:14:12;16.40;;;2.40;;
68985;SDS011;56035;37.534;-122.308;2023-03-03T14:16:49;18.20;;;2.57;;
68985;SDS011;56035;37.534;-122.308;2023-03-03T14:19:46;16.00;;;2.70;;
68985;SDS011;56035;37.534;-122.308;2023-03-03T14:25:08;15.40;;;3.23;;
68985;SDS011;56035;37.534;-122.308;2023-03-03T14:27:40;18.80;;;2.97;;
68985;SDS011;56035;37.534;-122.308;2023-03-03T14:32:58;19.97;;;3.03;;
68985;SDS011;56035;37.534;-122.308;2023-03-03T14:35:32;21.83;;;3.37;;
68985;SDS011;56035;37.534;-122.308;2023-03-03T14:38:46;15.13;;;2.27;;
68985;SDS011;56035;37.534;-122.308;2023-03-03T14:41:17;17.45;;;2.65;;
68985;SDS011;56035;37.534;-122.308;2023-03-03T14:43:45;17.47;;;3.30;;
68985;SDS011;56035;37.534;-122.308;2023-03-03T14:46:36;13.17;;;2.10;;
68985;SDS011;56035;37.534;-122.308;2023-03-03T14:49:12;11.80;;;1.73;;
68985;SDS011;56035;37.534;-122.308;2023-03-03T14:52:11;15.13;;;2.67;;
68985;SDS011;56035;37.534;-122.308;2023-03-03T14:54:46;16.07;;;2.23;;
68985;SDS011;56035;37.534;-122.308;2023-03-03T14:57:18;16.47;;;2.73;;
68985;SDS011;56035;37.534;-122.308;2023-03-03T15:02:40;12.40;;;3.20;;
68985;SDS011;56035;37.534;-122.308;2023-03-03T15:05:19;12.90;;;2.00;;
68985;SDS011;56035;37.534;-122.308;2023-03-03T15:10:30;11.93;;;1.90;;
68985;SDS011;56035;37.534;-122.308;2023-03-03T15:13:08;13.67;;;2.97;;
68985;SDS011;56035;37.534;-122.308;2023-03-03T15:18:25;11.87;;;2.50;;
68985;SDS011;56035;37.534;-122.308;2023-03-03T15:26:20;13.90;;;2.47;;
68985;SDS011;56035;37.534;-122.308;2023-03-03T15:29:00;12.47;;;2.70;;
68985;SDS011;56035;37.534;-122.308;2023-03-03T15:43:27;14.07;;;2.17;;
68985;SDS011;56035;37.534;-122.308;2023-03-03T15:56:56;9.80;;;1.70;;
68985;SDS011;56035;37.534;-122.308;2023-03-03T16:02:53;9.17;;;1.77;;
68985;SDS011;56035;37.534;-122.308;2023-03-03T16:08:18;9.32;;;1.55;;
68985;SDS011;56035;37.534;-122.308;2023-03-03T16:22:00;8.83;;;1.67;;
68985;SDS011;56035;37.534;-122.308;2023-03-03T16:27:31;9.80;;;1.90;;
68985;SDS011;56035;37.534;-122.308;2023-03-03T16:30:25;11.30;;;1.57;;
68985;SDS011;56035;37.534;-122.308;2023-03-03T16:33:05;10.50;;;1.77;;
68985;SDS011;56035;37.534;-122.308;2023-03-03T16:36:10;10.73;;;1.90;;
68985;SDS011;56035;37.534;-122.308;2023-03-03T16:38:57;8.63;;;2.10;;
68985;SDS011;56035;37.534;-122.308;2023-03-03T16:44:26;8.73;;;2.10;;
68985;SDS011;56035;37.534;-122.308;2023-03-03T16:47:01;9.90;;;2.43;;
68985;SDS011;56035;37.534;-122.308;2023-03-03T16:50:06;9.47;;;2.00;;
68985;SDS011;56035;37.534;-122.308;2023-03-03T16:52:46;10.47;;;2.07;;
68985;SDS011;56035;37.534;-122.308;2023-03-03T16:55:26;9.47;;;2.13;;
68985;SDS011;56035;37.534;-122.308;2023-03-03T17:00:39;11.70;;;2.95;;
68985;SDS011;56035;37.534;-122.308;2023-03-03T17:06:33;7.57;;;2.40;;
68985;SDS011;56035;37.534;-122.308;2023-03-03T17:14:39;8.17;;;2.00;;
68985;SDS011;56035;37.534;-122.308;2023-03-03T17:20:43;8.77;;;2.70;;
68985;SDS011;56035;37.534;-122.308;2023-03-03T17:34:19;11.33;;;2.87;;
68985;SDS011;56035;37.534;-122.308;2023-03-03T17:37:10;6.77;;;2.43;;
68985;SDS011;56035;37.534;-122.308;2023-03-03T17:42:45;8.73;;;3.00;;
68985;SDS011;56035;37.534;-122.308;2023-03-03T17:45:13;8.03;;;2.43;;
68985;SDS011;56035;37.534;-122.308;2023-03-03T17:50:12;7.27;;;2.47;;
68985;SDS011;56035;37.534;-122.308;2023-03-03T17:56:05;8.00;;;2.20;;
68985;SDS011;56035;37.534;-122.308;2023-03-03T18:01:52;6.33;;;1.53;;
68985;SDS011;56035;37.534;-122.308;2023-03-03T18:07:25;3.57;;;1.10;;
68985;SDS011;56035;37.534;-122.308;2023-03-03T18:21:15;2.40;;;0.83;;
68985;SDS011;56035;37.534;-122.308;2023-03-03T18:46:50;5.00;;;1.70;;
68985;SDS011;56035;37.534;-122.308;2023-03-03T18:49:01;3.93;;;1.77;;
68985;SDS011;56035;37.534;-122.308;2023-03-03T19:04:55;3.13;;;1.33;;
68985;SDS011;56035;37.534;-122.308;2023-03-03T19:08:02;5.90;;;1.53;;
68985;SDS011;56035;37.534;-122.308;2023-03-03T19:10:48;5.47;;;2.07;;
68985;SDS011;56035;37.534;-122.308;2023-03-03T19:13:40;2.47;;;1.10;;
68985;SDS011;56035;37.534;-122.308;2023-03-03T19:21:20;4.07;;;1.60;;
68985;SDS011;56035;37.534;-122.308;2023-03-03T19:24:03;6.53;;;1.70;;
68985;SDS011;56035;37.534;-122.308;2023-03-03T19:43:29;4.17;;;1.50;;
68985;SDS011;56035;37.534;-122.308;2023-03-03T19:48:32;7.90;;;2.10;;
68985;SDS011;56035;37.534;-122.308;2023-03-03T19:53:42;7.87;;;2.23;;
68985;SDS011;56035;37.534;-122.308;2023-03-03T19:56:53;5.03;;;1.80;;
68985;SDS011;56035;37.534;-122.308;2023-03-03T20:07:37;5.20;;;2.17;;
68985;SDS011;56035;37.534;-122.308;2023-03-03T20:13:17;5.88;;;2.28;;
68985;SDS011;56035;37.534;-122.308;2023-03-03T20:18:50;5.40;;;2.33;;
68985;SDS011;56035;37.534;-122.308;2023-03-03T20:24:21;6.53;;;1.70;;
68985;SDS011;56035;37.534;-122.308;2023-03-03T20:32:46;6.20;;;2.30;;
68985;SDS011;56035;37.534;-122.308;2023-03-03T20:38:11;6.33;;;1.80;;
68985;SDS011;56035;37.534;-122.308;2023-03-03T20:41:02;6.03;;;2.27;;
68985;SDS011;56035;37.534;-122.308;2023-03-03T20:43:41;4.37;;;2.17;;
68985;SDS011;56035;37.534;-122.308;2023-03-03T20:52:04;5.20;;;2.25;;
68985;SDS011;56035;37.534;-122.308;2023-03-03T21:02:53;5.20;;;2.30;;
68985;SDS011;56035;37.534;-122.308;2023-03-03T21:08:51;7.37;;;2.87;;
68985;SDS011;56035;37.534;-122.308;2023-03-03T21:11:20;8.47;;;2.97;;
68985;SDS011;56035;37.534;-122.308;2023-03-03T21:13:56;4.97;;;2.90;;
68985;SDS011;56035;37.534;-122.308;2023-03-03T21:18:56;6.63;;;2.80;;
68985;SDS011;56035;37.534;-122.308;2023-03-03T21:21:27;7.57;;;3.60;;
68985;SDS011;56035;37.534;-122.308;2023-03-03T21:23:55;8.60;;;3.83;;
68985;SDS011;56035;37.534;-122.308;2023-03-03T21:31:49;7.10;;;3.60;;
68985;SDS011;56035;37.534;-122.308;2023-03-03T21:37:03;6.40;;;3.00;;
68985;SDS011;56035;37.534;-122.308;2023-03-03T21:39:32;9.63;;;3.40;;
68985;SDS011;56035;37.534;-122.308;2023-03-03T21:42:05;7.57;;;3.17;;
68985;SDS011;56035;37.534;-122.308;2023-03-03T21:44:37;11.63;;;3.57;;
68985;SDS011;56035;37.534;-122.308;2023-03-03T21:47:14;10.40;;;3.63;;
68985;SDS011;56035;37.534;-122.308;2023-03-03T21:49:49;6.17;;;2.80;;
68985;SDS011;56035;37.534;-122.308;2023-03-03T21:52:17;8.40;;;3.47;;
68985;SDS011;56035;37.534;-122.308;2023-03-03T21:54:46;9.07;;;3.00;;
68985;SDS011;56035;37.534;-122.308;2023-03-03T21:57:14;7.33;;;3.07;;
68985;SDS011;56035;37.534;-122.308;2023-03-03T21:59:41;9.05;;;3.50;;